createdAt,value
2019-01-05T00:00:37.784Z,40.60
2019-01-05T00:03:28.817Z,40.45
2019-01-05T00:06:25.699Z,42.08
2019-01-05T00:09:29.098Z,41.25
2019-01-05T00:12:23.069Z,38.63
2019-01-05T00:15:15.409Z,42.43
2019-01-05T00:18:02.316Z,33.60
2019-01-05T00:21:08.751Z,39.00
2019-01-05T00:24:08.596Z,39.67
2019-01-05T00:27:03.108Z,41.28
2019-01-05T00:29:43.704Z,37.55
2019-01-05T00:32:47.493Z,40.90
2019-01-05T00:35:48.485Z,37.87
2019-01-05T00:38:29.265Z,31.00
2019-01-05T00:41:16.066Z,38.92
2019-01-05T00:44:10.150Z,41.10
2019-01-05T00:46:55.441Z,33.23
2019-01-05T00:49:48.784Z,41.60
2019-01-05T00:52:36.750Z,42.00
2019-01-05T00:55:23.869Z,43.17
2019-01-05T00:58:11.912Z,45.03
2019-01-05T01:01:14.989Z,39.98
2019-01-05T01:04:01.897Z,40.83
2019-01-05T01:06:59.130Z,43.58
2019-01-05T01:09:54.663Z,46.37
2019-01-05T01:12:54.916Z,42.17
2019-01-05T01:15:42.993Z,41.92
2019-01-05T01:18:24.676Z,39.80
2019-01-05T01:21:12.875Z,40.55
2019-01-05T01:24:19.448Z,40.00
2019-01-05T01:27:06.340Z,41.50
2019-01-05T01:29:53.282Z,40.60
2019-01-05T01:32:40.401Z,42.38
2019-01-05T01:35:28.432Z,40.90
2019-01-05T01:38:38.048Z,42.55
2019-01-05T01:41:25.893Z,45.88
2019-01-05T01:44:12.623Z,34.67
2019-01-05T01:46:56.257Z,41.28
2019-01-05T01:49:43.318Z,45.05
2019-01-05T01:52:30.349Z,41.65
2019-01-05T01:55:15.313Z,38.75
2019-01-05T01:58:02.332Z,35.13
2019-01-05T02:01:08.928Z,37.53
2019-01-05T02:03:58.391Z,47.60
2019-01-05T02:06:45.100Z,42.10
2019-01-05T02:09:38.869Z,39.67
2019-01-05T02:12:31.276Z,43.90
2019-01-05T02:15:20.681Z,47.33
2019-01-05T02:18:41.460Z,42.38
2019-01-05T02:21:51.752Z,48.63
2019-01-05T02:25:12.398Z,44.60
2019-01-05T02:29:01.196Z,38.02
2019-01-05T02:32:23.633Z,46.53
2019-01-05T02:35:52.896Z,45.58
2019-01-05T02:39:27.173Z,47.62
2019-01-05T02:42:56.398Z,46.30
2019-01-05T02:46:52.464Z,46.70
2019-01-05T02:50:11.585Z,45.88
2019-01-05T02:53:22.864Z,38.55
2019-01-05T02:57:08.960Z,50.67
2019-01-05T03:00:37.010Z,48.65
2019-01-05T03:04:08.175Z,46.15
2019-01-05T03:07:58.713Z,40.05
2019-01-05T03:11:19.555Z,45.43
2019-01-05T03:14:35.798Z,50.30
2019-01-05T03:17:50.380Z,52.27
2019-01-05T03:21:33.817Z,48.40
2019-01-05T03:25:17.302Z,46.10
2019-01-05T03:29:01.627Z,50.05
2019-01-05T03:32:57.618Z,44.27
2019-01-05T03:36:34.152Z,44.77
2019-01-05T03:39:57.296Z,47.62
2019-01-05T03:43:44.161Z,43.65
2019-01-05T03:47:24.179Z,42.50
2019-01-05T03:50:38.973Z,50.33
2019-01-05T03:54:20.961Z,61.00
2019-01-05T03:57:37.661Z,54.90
2019-01-05T04:00:47.548Z,49.83
2019-01-05T04:03:59.006Z,48.55
2019-01-05T04:07:13.043Z,56.48
2019-01-05T04:10:56.243Z,51.45
2019-01-05T04:14:37.410Z,49.33
2019-01-05T04:18:10.904Z,34.30
2019-01-05T04:21:38.118Z,49.00
2019-01-05T04:25:08.064Z,51.20
2019-01-05T04:28:20.962Z,56.42
2019-01-05T04:31:50.911Z,52.55
2019-01-05T04:35:20.653Z,44.65
2019-01-05T04:38:38.905Z,47.80
2019-01-05T04:42:06.040Z,49.85
2019-01-05T04:45:20.697Z,49.90
2019-01-05T04:48:37.412Z,51.88
2019-01-05T04:52:07.809Z,49.83
2019-01-05T04:55:27.621Z,48.50
2019-01-05T04:59:16.520Z,50.05
2019-01-05T05:02:44.461Z,50.08
2019-01-05T05:06:21.049Z,52.83
2019-01-05T05:09:45.876Z,46.77
2019-01-05T05:13:00.952Z,52.55
2019-01-05T05:16:44.756Z,50.35
2019-01-05T05:20:06.816Z,45.95
2019-01-05T05:23:44.844Z,42.23
2019-01-05T05:27:03.039Z,50.00
2019-01-05T05:30:35.554Z,41.68
2019-01-05T05:34:06.346Z,50.80
2019-01-05T05:37:18.946Z,45.45
2019-01-05T05:40:32.660Z,49.93
2019-01-05T05:44:13.029Z,49.33
2019-01-05T05:47:50.078Z,46.13
2019-01-05T05:51:26.656Z,46.50
2019-01-05T05:54:32.327Z,44.88
2019-01-05T05:58:07.634Z,45.17
2019-01-05T06:01:51.980Z,42.27
2019-01-05T06:05:02.256Z,46.13
2019-01-05T06:08:38.406Z,41.63
2019-01-05T06:12:13.142Z,41.50
2019-01-05T06:15:39.131Z,45.52
2019-01-05T06:19:10.804Z,37.30
2019-01-05T06:22:34.350Z,39.95
2019-01-05T06:25:54.473Z,40.55
2019-01-05T06:29:28.439Z,44.67
2019-01-05T06:32:52.612Z,42.20
2019-01-05T06:36:32.736Z,45.23
2019-01-05T06:40:08.456Z,43.63
2019-01-05T06:43:55.237Z,39.45
2019-01-05T06:47:20.737Z,41.25
2019-01-05T06:50:47.601Z,38.30
2019-01-05T06:54:15.697Z,41.10
2019-01-05T06:57:45.081Z,41.37
2019-01-05T07:01:05.581Z,33.83
2019-01-05T07:04:31.276Z,35.52
2019-01-05T07:08:02.142Z,38.35
2019-01-05T07:11:35.385Z,42.23
2019-01-05T07:14:56.905Z,32.48
2019-01-05T07:18:15.214Z,33.55
2019-01-05T07:22:09.168Z,31.60
2019-01-05T07:25:25.264Z,33.95
2019-01-05T07:28:49.489Z,37.65
2019-01-05T07:32:30.630Z,35.98
2019-01-05T07:35:55.159Z,34.35
2019-01-05T07:39:22.158Z,33.67
2019-01-05T07:43:12.403Z,34.00
2019-01-05T07:46:37.190Z,28.07
2019-01-05T07:50:11.017Z,28.90
2019-01-05T07:53:58.148Z,27.90
2019-01-05T07:57:35.897Z,29.30
2019-01-05T08:01:25.526Z,31.15
2019-01-05T08:04:49.404Z,27.20
2019-01-05T08:08:13.239Z,30.52
2019-01-05T08:11:37.945Z,28.55
2019-01-05T08:15:06.128Z,27.20
2019-01-05T08:18:58.581Z,26.95
2019-01-05T08:22:57.394Z,28.17
2019-01-05T08:26:19.690Z,27.95
2019-01-05T08:29:54.543Z,29.55
2019-01-05T08:33:17.547Z,28.25
2019-01-05T08:36:59.527Z,28.12
2019-01-05T08:40:33.045Z,23.83
2019-01-05T08:44:09.062Z,30.65
2019-01-05T08:47:49.873Z,25.45
2019-01-05T08:51:16.371Z,26.85
2019-01-05T08:54:46.278Z,27.02
2019-01-05T08:58:35.905Z,26.82
2019-01-05T09:02:37.507Z,26.17
2019-01-05T09:06:29.540Z,26.40
2019-01-05T09:10:13.380Z,29.40
2019-01-05T09:13:37.628Z,26.40
2019-01-05T09:17:18.232Z,24.30
2019-01-05T09:21:10.986Z,23.50
2019-01-05T09:24:45.062Z,23.95
2019-01-05T09:28:10.505Z,24.35
2019-01-05T09:32:02.957Z,24.85
2019-01-05T09:35:44.172Z,24.02
2019-01-05T09:39:22.480Z,24.40
2019-01-05T09:42:57.002Z,22.42
2019-01-05T09:46:33.936Z,23.25
2019-01-05T09:49:51.502Z,24.12
2019-01-05T09:53:26.733Z,23.75
2019-01-05T09:56:50.336Z,23.40
2019-01-05T10:00:16.445Z,25.17
2019-01-05T10:04:18.320Z,23.92
2019-01-05T10:07:59.260Z,22.95
2019-01-05T10:11:23.606Z,23.80
2019-01-05T10:14:47.889Z,23.30
2019-01-05T10:18:10.974Z,23.15
2019-01-05T10:21:40.044Z,23.52
2019-01-05T10:25:20.633Z,23.65
2019-01-05T10:29:07.040Z,23.42
2019-01-05T10:32:31.023Z,22.65
2019-01-05T10:35:59.852Z,23.05
2019-01-05T10:39:26.084Z,24.25
2019-01-05T10:43:00.008Z,24.10
2019-01-05T10:46:44.052Z,22.48
2019-01-05T10:50:14.132Z,22.98
2019-01-05T10:53:29.688Z,26.40
2019-01-05T10:57:03.544Z,23.60
2019-01-05T11:00:40.037Z,24.90
2019-01-05T11:04:09.226Z,25.30
2019-01-05T11:07:29.329Z,23.87
2019-01-05T11:11:13.811Z,24.63
2019-01-05T11:15:07.966Z,24.50
2019-01-05T11:18:37.923Z,24.20
2019-01-05T11:21:39.011Z,25.43
2019-01-05T11:25:18.277Z,23.45
2019-01-05T11:29:05.308Z,25.10
2019-01-05T11:32:40.085Z,24.40
2019-01-05T11:36:15.821Z,25.75
2019-01-05T11:39:36.416Z,27.27
2019-01-05T11:43:12.365Z,26.12
2019-01-05T11:46:47.511Z,25.57
2019-01-05T11:50:17.046Z,24.13
2019-01-05T11:53:41.267Z,25.30
2019-01-05T11:56:58.164Z,24.13
2019-01-05T12:00:25.364Z,25.20
2019-01-05T12:03:40.173Z,25.30
2019-01-05T12:07:40.430Z,25.20
2019-01-05T12:11:20.064Z,24.25
2019-01-05T12:14:54.136Z,25.65
2019-01-05T12:18:52.797Z,25.37
2019-01-05T12:22:32.487Z,24.10
2019-01-05T12:26:34.812Z,27.13
2019-01-05T12:30:21.596Z,25.08
2019-01-05T12:33:51.992Z,25.60
2019-01-05T12:37:29.328Z,24.20
2019-01-05T12:41:01.903Z,23.92
2019-01-05T12:44:33.973Z,25.17
2019-01-05T12:48:15.769Z,22.95
2019-01-05T12:51:38.161Z,26.77
2019-01-05T12:55:28.622Z,24.37
2019-01-05T12:58:48.194Z,24.60
2019-01-05T13:02:19.706Z,24.67
2019-01-05T13:05:57.037Z,25.17
2019-01-05T13:09:20.293Z,24.63
2019-01-05T13:12:53.678Z,25.80
2019-01-05T13:16:34.999Z,25.80
2019-01-05T13:19:59.239Z,25.00
2019-01-05T13:23:27.237Z,26.33
2019-01-05T13:27:06.114Z,25.60
2019-01-05T13:30:54.597Z,26.27
2019-01-05T13:34:34.158Z,26.27
2019-01-05T13:38:22.772Z,28.20
2019-01-05T13:41:37.422Z,28.70
2019-01-05T13:44:51.724Z,26.73
2019-01-05T13:48:23.513Z,29.37
2019-01-05T13:51:45.264Z,31.67
2019-01-05T13:54:39.885Z,30.07
2019-01-05T13:57:23.232Z,31.07
2019-01-05T14:00:13.567Z,29.33
2019-01-05T14:03:00.449Z,29.17
2019-01-05T14:05:47.561Z,29.67
2019-01-05T14:08:47.693Z,30.30
2019-01-05T14:11:41.499Z,30.13
2019-01-05T14:14:28.457Z,30.20
2019-01-05T14:17:20.325Z,37.93
2019-01-05T14:20:11.762Z,29.40
2019-01-05T14:22:58.641Z,30.77
2019-01-05T14:25:58.819Z,30.23
2019-01-05T14:28:45.832Z,30.60
2019-01-05T14:31:33.912Z,31.20
2019-01-05T14:34:16.744Z,30.60
2019-01-05T14:37:11.364Z,31.60
2019-01-05T14:39:59.361Z,30.80
2019-01-05T14:42:53.433Z,28.93
2019-01-05T14:45:41.769Z,30.67
2019-01-05T14:48:29.112Z,29.90
2019-01-05T14:51:16.197Z,32.37
2019-01-05T14:54:02.917Z,31.37
2019-01-05T14:56:49.689Z,29.03
2019-01-05T14:59:53.161Z,28.23
2019-01-05T15:02:40.037Z,31.47
2019-01-05T15:05:43.470Z,32.90
2019-01-05T15:08:43.779Z,30.67
2019-01-05T15:11:30.892Z,30.10
2019-01-05T15:14:17.976Z,28.17
2019-01-05T15:17:18.560Z,32.27
2019-01-05T15:20:24.965Z,32.50
2019-01-05T15:23:25.289Z,31.60
2019-01-05T15:26:14.393Z,30.33
2019-01-05T15:29:01.139Z,31.57
2019-01-05T15:32:01.526Z,28.57
2019-01-05T15:35:01.701Z,30.00
2019-01-05T15:38:05.327Z,30.57
2019-01-05T15:40:52.233Z,29.67
2019-01-05T15:43:40.288Z,31.77
2019-01-05T15:46:42.700Z,31.40
2019-01-05T15:49:42.722Z,30.70
2019-01-05T15:52:29.551Z,30.47
2019-01-05T15:55:16.373Z,32.53
2019-01-05T15:58:19.281Z,31.90
2019-01-05T16:01:19.707Z,30.67
2019-01-05T16:04:10.488Z,33.67
2019-01-05T16:07:04.610Z,32.83
2019-01-05T16:10:07.685Z,32.10
2019-01-05T16:12:56.088Z,32.83
2019-01-05T16:15:42.804Z,33.97
2019-01-05T16:18:27.969Z,33.17
2019-01-05T16:21:21.797Z,30.30
2019-01-05T16:24:28.041Z,33.47
2019-01-05T16:27:14.813Z,32.60
2019-01-05T16:30:05.768Z,34.93
2019-01-05T16:33:05.973Z,33.57
2019-01-05T16:36:03.125Z,32.20
2019-01-05T16:38:52.034Z,33.43
2019-01-05T16:41:49.121Z,30.23
2019-01-05T16:44:36.216Z,33.00
2019-01-05T16:47:23.621Z,31.57
2019-01-05T16:50:05.904Z,31.07
2019-01-05T16:52:53.047Z,31.77
2019-01-05T16:55:39.830Z,31.13
2019-01-05T16:58:33.940Z,31.57
2019-01-05T17:01:40.461Z,28.77
2019-01-05T17:04:34.792Z,30.70
2019-01-05T17:07:22.861Z,33.40
2019-01-05T17:10:09.527Z,31.30
2019-01-05T17:12:56.589Z,32.73
2019-01-05T17:16:00.114Z,31.13
2019-01-05T17:18:53.528Z,33.23
2019-01-05T17:21:50.705Z,30.40
2019-01-05T17:24:37.406Z,30.43
2019-01-05T17:27:25.769Z,32.27
2019-01-05T17:30:20.069Z,29.40
2019-01-05T17:33:08.183Z,30.60
2019-01-05T17:36:08.398Z,28.10
2019-01-05T17:39:10.102Z,30.00
2019-01-05T17:42:03.931Z,30.30
2019-01-05T17:44:50.880Z,30.57
2019-01-05T17:47:48.097Z,31.80
2019-01-05T17:50:36.170Z,31.07
2019-01-05T17:53:22.900Z,29.23
2019-01-05T17:56:19.209Z,28.53
2019-01-05T17:59:22.378Z,28.17
2019-01-05T18:02:08.792Z,29.20
2019-01-05T18:04:55.458Z,28.70
2019-01-05T18:07:42.142Z,27.23
2019-01-05T18:10:30.223Z,29.40
2019-01-05T18:13:14.037Z,29.07
2019-01-05T18:16:02.085Z,29.60
2019-01-05T18:18:40.893Z,29.57
2019-01-05T18:21:34.815Z,27.70
2019-01-05T18:24:23.021Z,37.00
2019-01-05T18:27:09.709Z,33.13
2019-01-05T18:30:00.900Z,31.30
2019-01-05T18:32:47.517Z,28.63
2019-01-05T18:35:26.723Z,30.20
2019-01-05T18:38:23.756Z,29.50
2019-01-05T18:41:14.820Z,29.30
2019-01-05T18:44:02.781Z,31.37
2019-01-05T18:47:05.863Z,29.50
2019-01-05T18:49:56.840Z,27.57
2019-01-05T18:52:48.355Z,30.37
2019-01-05T18:55:42.434Z,31.80
2019-01-05T18:58:36.133Z,29.37
2019-01-05T19:01:30.290Z,29.03
2019-01-05T19:04:17.012Z,29.10
2019-01-05T19:06:58.603Z,30.67
2019-01-05T19:09:56.130Z,29.33
2019-01-05T19:12:56.424Z,30.47
2019-01-05T19:15:43.426Z,32.13
2019-01-05T19:18:47.030Z,29.43
2019-01-05T19:21:37.939Z,29.63
2019-01-05T19:24:24.672Z,29.73
2019-01-05T19:27:12.850Z,28.57
2019-01-05T19:30:10.044Z,28.60
2019-01-05T19:32:57.045Z,30.73
2019-01-05T19:35:54.307Z,28.20
2019-01-05T19:38:48.217Z,31.00
2019-01-05T19:41:33.733Z,28.17
2019-01-05T19:44:20.585Z,28.03
2019-01-05T19:47:07.856Z,28.43
2019-01-05T19:50:02.052Z,29.47
2019-01-05T19:53:06.885Z,30.53
2019-01-05T19:56:00.142Z,29.73
2019-01-05T19:58:54.427Z,30.27
2019-01-05T20:01:51.855Z,28.30
2019-01-05T20:04:38.764Z,32.17
2019-01-05T20:07:25.972Z,30.00
2019-01-05T20:10:13.978Z,30.60
2019-01-05T20:13:00.825Z,31.53
2019-01-05T20:16:07.445Z,31.43
2019-01-05T20:19:07.533Z,29.90
2019-01-05T20:21:58.604Z,29.57
2019-01-05T20:24:40.207Z,28.70
2019-01-05T20:27:43.460Z,28.97
2019-01-05T20:30:43.612Z,28.80
2019-01-05T20:33:40.730Z,28.87
2019-01-05T20:36:31.570Z,29.10
2019-01-05T20:39:18.344Z,28.10
2019-01-05T20:42:14.855Z,28.83
2019-01-05T20:45:08.772Z,28.83
2019-01-05T20:47:55.661Z,29.27
2019-01-05T20:50:42.677Z,31.07
2019-01-05T20:53:29.669Z,28.83
2019-01-05T20:56:16.683Z,30.57
2019-01-05T20:59:16.827Z,30.33
2019-01-05T21:02:05.785Z,30.93
2019-01-05T21:04:59.601Z,30.40
2019-01-05T21:07:45.080Z,28.27
2019-01-05T21:10:31.792Z,29.20
2019-01-05T21:13:19.029Z,29.30
2019-01-05T21:16:06.102Z,28.50
2019-01-05T21:18:55.226Z,31.40
2019-01-05T21:21:49.065Z,33.03
2019-01-05T21:24:38.352Z,28.40
2019-01-05T21:27:44.561Z,29.87
2019-01-05T21:30:35.774Z,26.57
2019-01-05T21:33:32.817Z,27.43
2019-01-05T21:36:26.864Z,28.77
2019-01-05T21:39:33.286Z,28.73
2019-01-05T21:42:33.665Z,30.03
2019-01-05T21:45:21.686Z,29.30
2019-01-05T21:48:08.695Z,29.10
2019-01-05T21:51:05.810Z,27.43
2019-01-05T21:54:04.985Z,27.77
2019-01-05T21:56:56.110Z,26.60
2019-01-05T21:59:54.690Z,31.00
2019-01-05T22:02:57.816Z,28.13
2019-01-05T22:06:04.177Z,28.70
2019-01-05T22:08:52.172Z,28.43
2019-01-05T22:11:39.925Z,29.43
2019-01-05T22:14:34.047Z,29.40
2019-01-05T22:17:25.020Z,28.33
2019-01-05T22:20:11.733Z,30.27
2019-01-05T22:22:52.664Z,27.90
2019-01-05T22:25:57.186Z,30.30
2019-01-05T22:28:38.496Z,29.93
2019-01-05T22:31:26.470Z,30.77
2019-01-05T22:34:13.221Z,31.47
2019-01-05T22:37:16.570Z,32.10
2019-01-05T22:39:59.022Z,30.17
2019-01-05T22:42:45.708Z,29.80
2019-01-05T22:45:32.852Z,29.07
2019-01-05T22:48:17.256Z,33.67
2019-01-05T22:51:04.265Z,30.73
2019-01-05T22:53:52.316Z,31.57
2019-01-05T22:56:40.336Z,32.60
2019-01-05T22:59:37.343Z,30.03
2019-01-05T23:02:34.370Z,29.00
2019-01-05T23:05:26.046Z,30.87
2019-01-05T23:08:12.695Z,30.40
2019-01-05T23:10:59.857Z,29.43
2019-01-05T23:13:50.944Z,31.67
2019-01-05T23:16:42.027Z,28.83
2019-01-05T23:19:39.437Z,28.73
2019-01-05T23:22:24.280Z,30.20
2019-01-05T23:25:09.954Z,32.50
2019-01-05T23:28:01.010Z,31.60
2019-01-05T23:31:01.565Z,32.07
2019-01-05T23:33:48.277Z,29.10
2019-01-05T23:36:36.796Z,31.30
2019-01-05T23:39:37.756Z,28.87
2019-01-05T23:42:38.961Z,29.17
2019-01-05T23:45:26.984Z,29.40
2019-01-05T23:48:09.393Z,29.83
2019-01-05T23:51:00.482Z,27.37
2019-01-05T23:53:47.345Z,30.10
2019-01-05T23:56:48.706Z,29.30
2019-01-05T23:59:42.604Z,29.33
